RJFM(METAR)
05/21 17:00
METAR RJFM 210800Z 11007KT 9999 FEW030 23/13 Q1004 RMK 1CU030 A2965=
戻る
トップページへ戻る
IMOC Co,.Ltd.